Terminal Aerodrome Forecast
Issued by NWS Caribou, ME

Home | Current Version | Previous Version | Text Only | Print | Product List | Glossary On
Versions: 1 2 3 4 5 6 7 8 9 10 11 12 13 14 15
965
FTUS41 KCAR 221720
TAFBGR
TAF
KBGR 221720Z 2218/2318 18008KT P6SM OVC060
     FM230000 18007KT 4SM -SHRA OVC025
     FM230200 18006KT 6SM -SHRA OVC005
     FM231230 18004KT P6SM OVC010
     FM231400 22005KT P6SM BKN040=

USA.gov is the U.S. government's official web portal to all federal, state and local government web resources and services.